createdAt,value
2017-08-23T00:01:48.039Z,77.80
2017-08-23T00:04:15.694Z,77.10
2017-08-23T00:06:43.345Z,77.50
2017-08-23T00:09:11.091Z,78.00
2017-08-23T00:11:38.844Z,78.20
2017-08-23T00:14:06.599Z,78.40
2017-08-23T00:16:35.762Z,78.10
2017-08-23T00:19:03.432Z,78.20
2017-08-23T00:21:31.190Z,78.50
2017-08-23T00:23:58.843Z,78.40
2017-08-23T00:26:26.499Z,78.00
2017-08-23T00:28:54.288Z,77.70
2017-08-23T00:31:22.034Z,77.30
2017-08-23T00:33:49.698Z,77.60
2017-08-23T00:36:17.369Z,78.20
2017-08-23T00:38:45.130Z,78.70
2017-08-23T00:41:12.805Z,78.40
2017-08-23T00:43:41.256Z,77.90
2017-08-23T00:46:09.007Z,77.90
2017-08-23T00:48:36.671Z,77.40
2017-08-23T00:51:04.739Z,77.20
2017-08-23T00:53:32.423Z,77.30
2017-08-23T00:56:00.190Z,77.30
2017-08-23T00:58:28.660Z,77.50
2017-08-23T01:00:57.255Z,77.70
2017-08-23T01:03:25.054Z,77.70
2017-08-23T01:05:52.703Z,77.60
2017-08-23T01:08:20.476Z,77.70
2017-08-23T01:10:48.134Z,77.80
2017-08-23T01:13:15.899Z,78.50
2017-08-23T01:15:43.564Z,78.70
2017-08-23T01:18:11.229Z,78.90
2017-08-23T01:20:39.065Z,78.80
2017-08-23T01:23:06.724Z,78.80
2017-08-23T01:25:34.375Z,78.80
2017-08-23T01:28:02.142Z,78.60
2017-08-23T01:30:29.843Z,78.60
2017-08-23T01:32:57.499Z,78.50
2017-08-23T01:35:25.272Z,78.80
2017-08-23T01:37:52.928Z,79.00
2017-08-23T01:40:20.587Z,78.90
2017-08-23T01:42:48.343Z,79.00
2017-08-23T01:45:15.995Z,78.60
2017-08-23T01:47:43.646Z,78.50
2017-08-23T01:50:11.396Z,78.80
2017-08-23T01:52:39.048Z,78.70
2017-08-23T01:55:06.811Z,78.70
2017-08-23T01:57:34.567Z,78.60
2017-08-23T02:00:02.216Z,78.80
2017-08-23T02:02:29.870Z,79.10
2017-08-23T02:04:57.627Z,78.80
2017-08-23T02:07:25.280Z,79.00
2017-08-23T02:09:53.706Z,78.70
2017-08-23T02:12:21.475Z,78.50
2017-08-23T02:14:49.124Z,78.60
2017-08-23T02:17:16.774Z,78.00
2017-08-23T02:19:44.568Z,78.00
2017-08-23T02:22:12.214Z,78.50
2017-08-23T02:24:39.863Z,79.10
2017-08-23T02:27:07.615Z,78.80
2017-08-23T02:29:35.260Z,78.90
2017-08-23T02:32:03.039Z,79.20
2017-08-23T02:34:30.710Z,79.00
2017-08-23T02:36:58.354Z,79.50
2017-08-23T02:39:26.153Z,79.10
2017-08-23T02:41:53.806Z,79.30
2017-08-23T02:44:21.459Z,79.50
2017-08-23T02:46:49.213Z,79.90
2017-08-23T02:49:16.860Z,79.40
2017-08-23T02:51:44.624Z,79.50
2017-08-23T02:54:12.290Z,79.70
2017-08-23T02:56:40.056Z,79.70
2017-08-23T02:59:07.714Z,79.90
2017-08-23T03:01:35.369Z,79.90
2017-08-23T03:04:03.181Z,79.90
2017-08-23T03:06:30.827Z,79.70
2017-08-23T03:08:59.359Z,79.90
2017-08-23T03:11:27.007Z,79.80
2017-08-23T03:13:54.659Z,80.50
2017-08-23T03:16:22.415Z,80.20
2017-08-23T03:18:50.199Z,80.00
2017-08-23T03:21:17.964Z,80.00
2017-08-23T03:23:45.620Z,80.00
2017-08-23T03:26:13.419Z,79.90
2017-08-23T03:28:41.067Z,79.80
2017-08-23T03:31:09.484Z,80.30
2017-08-23T03:33:37.250Z,80.20
2017-08-23T03:36:04.899Z,79.70
2017-08-23T03:38:32.545Z,79.70
2017-08-23T03:41:00.322Z,79.70
2017-08-23T03:43:27.966Z,80.40
2017-08-23T03:45:55.615Z,80.20
2017-08-23T03:48:23.383Z,80.10
2017-08-23T03:50:51.030Z,79.60
2017-08-23T03:53:18.687Z,79.40
2017-08-23T03:55:46.443Z,79.60
2017-08-23T03:58:14.090Z,80.30
2017-08-23T04:00:41.757Z,80.20
2017-08-23T04:03:09.539Z,79.40
2017-08-23T04:05:37.191Z,79.70
2017-08-23T04:08:04.943Z,80.40
2017-08-23T04:10:32.591Z,80.30
2017-08-23T04:13:00.343Z,80.00
2017-08-23T04:15:28.097Z,79.90
2017-08-23T04:17:55.855Z,80.30
2017-08-23T04:20:23.536Z,80.60
2017-08-23T04:22:51.183Z,80.60
2017-08-23T04:25:18.943Z,80.30
2017-08-23T04:27:46.595Z,79.80
2017-08-23T04:30:14.238Z,80.10
2017-08-23T04:32:41.999Z,80.20
2017-08-23T04:35:09.686Z,80.50
2017-08-23T04:37:37.446Z,80.60
2017-08-23T04:40:05.095Z,80.30
2017-08-23T04:42:32.749Z,79.80
2017-08-23T04:45:00.517Z,79.70
2017-08-23T04:47:28.172Z,80.30
2017-08-23T04:49:55.818Z,80.30
2017-08-23T04:52:23.602Z,80.20
2017-08-23T04:54:51.251Z,80.40
2017-08-23T04:57:18.903Z,80.40
2017-08-23T04:59:46.675Z,80.50
2017-08-23T05:02:14.326Z,80.60
2017-08-23T05:04:42.099Z,80.10
2017-08-23T05:07:09.746Z,80.20
2017-08-23T05:09:37.399Z,80.20
2017-08-23T05:12:05.181Z,80.80
2017-08-23T05:14:32.831Z,81.10
2017-08-23T05:17:00.478Z,81.50
2017-08-23T05:19:28.271Z,81.50
2017-08-23T05:21:55.932Z,81.40
2017-08-23T05:24:23.590Z,81.50
2017-08-23T05:26:51.358Z,81.00
2017-08-23T05:29:19.006Z,81.00
2017-08-23T05:31:46.699Z,81.10
2017-08-23T05:34:14.470Z,81.70
2017-08-23T05:36:42.118Z,81.90
2017-08-23T05:39:09.776Z,82.20
2017-08-23T05:41:37.526Z,82.10
2017-08-23T05:44:05.276Z,81.90
2017-08-23T05:46:32.919Z,80.80
2017-08-23T05:49:00.679Z,80.50
2017-08-23T05:51:28.367Z,80.60
2017-08-23T05:53:56.014Z,80.00
2017-08-23T05:56:23.786Z,79.70
2017-08-23T05:58:51.440Z,79.30
2017-08-23T06:01:19.231Z,79.40
2017-08-23T06:03:47.003Z,79.80
2017-08-23T06:06:14.651Z,79.10
2017-08-23T06:08:42.324Z,78.70
2017-08-23T06:11:10.084Z,77.50
2017-08-23T06:13:37.739Z,77.10
2017-08-23T06:16:05.502Z,77.20
2017-08-23T06:18:33.148Z,76.10
2017-08-23T06:21:00.824Z,73.70
2017-08-23T06:23:28.582Z,73.60
2017-08-23T06:25:56.336Z,72.60
2017-08-23T06:28:24.096Z,71.30
2017-08-23T06:30:51.746Z,70.40
2017-08-23T06:33:19.390Z,70.50
2017-08-23T06:35:47.475Z,69.00
2017-08-23T06:38:15.123Z,68.50
2017-08-23T06:40:42.887Z,67.90
2017-08-23T06:43:10.538Z,67.40
2017-08-23T06:45:38.182Z,67.80
2017-08-23T06:48:05.934Z,67.20
2017-08-23T06:50:33.596Z,67.20
2017-08-23T06:53:01.362Z,68.00
2017-08-23T06:55:29.016Z,67.70
2017-08-23T06:57:56.667Z,67.60
2017-08-23T07:00:24.419Z,67.50
2017-08-23T07:02:52.078Z,67.90
2017-08-23T07:05:19.843Z,68.70
2017-08-23T07:07:47.518Z,67.20
2017-08-23T07:10:15.279Z,67.00
2017-08-23T07:12:42.939Z,66.70
2017-08-23T07:15:10.583Z,65.50
2017-08-23T07:17:38.347Z,65.10
2017-08-23T07:20:06.006Z,64.50
2017-08-23T07:22:33.687Z,65.40
2017-08-23T07:25:01.443Z,65.10
2017-08-23T07:27:29.102Z,64.80
2017-08-23T07:29:56.885Z,62.40
2017-08-23T07:32:24.529Z,62.30
2017-08-23T07:34:52.174Z,62.00
2017-08-23T07:37:19.922Z,61.80
2017-08-23T07:39:47.575Z,61.90
2017-08-23T07:42:15.326Z,61.10
2017-08-23T07:44:43.079Z,61.00
2017-08-23T07:47:10.731Z,60.50
2017-08-23T07:49:38.531Z,61.50
2017-08-23T07:52:06.179Z,59.60
2017-08-23T07:54:33.822Z,60.10
2017-08-23T07:57:02.346Z,58.90
2017-08-23T07:59:30.001Z,58.90
2017-08-23T08:01:57.671Z,60.10
2017-08-23T08:04:25.467Z,59.80
2017-08-23T08:06:53.119Z,58.70
2017-08-23T08:09:20.876Z,58.90
2017-08-23T08:11:48.518Z,58.60
2017-08-23T08:14:16.275Z,57.30
2017-08-23T08:16:43.932Z,56.30
2017-08-23T08:19:11.578Z,56.40
2017-08-23T08:21:39.365Z,57.30
2017-08-23T08:24:07.015Z,56.20
2017-08-23T08:26:34.783Z,55.70
2017-08-23T08:29:02.431Z,56.60
2017-08-23T08:31:30.079Z,55.70
2017-08-23T08:33:57.846Z,57.00
2017-08-23T08:36:25.520Z,54.90
2017-08-23T08:38:53.176Z,57.80
2017-08-23T08:41:20.943Z,55.10
2017-08-23T08:43:48.591Z,54.90
2017-08-23T08:46:16.350Z,55.70
2017-08-23T08:48:43.999Z,54.60
2017-08-23T08:51:11.767Z,55.70
2017-08-23T08:53:39.427Z,54.00
2017-08-23T08:56:07.079Z,54.10
2017-08-23T08:58:34.841Z,54.20
2017-08-23T09:01:02.493Z,54.10
2017-08-23T09:03:30.259Z,53.90
2017-08-23T09:05:57.915Z,53.10
2017-08-23T09:08:25.696Z,53.80
2017-08-23T09:10:53.339Z,52.70
2017-08-23T09:13:20.992Z,52.00
2017-08-23T09:15:48.759Z,51.60
2017-08-23T09:18:16.515Z,52.00
2017-08-23T09:20:44.626Z,52.20
2017-08-23T09:23:12.311Z,53.10
2017-08-23T09:25:39.974Z,52.30
2017-08-23T09:28:07.739Z,51.20
2017-08-23T09:30:35.395Z,52.60
2017-08-23T09:33:03.048Z,51.10
2017-08-23T09:35:30.811Z,51.70
2017-08-23T09:37:58.459Z,51.00
2017-08-23T09:40:26.218Z,50.80
2017-08-23T09:42:53.983Z,50.80
2017-08-23T09:45:21.750Z,51.50
2017-08-23T09:47:49.407Z,50.40
2017-08-23T09:50:17.182Z,49.30
2017-08-23T09:52:44.832Z,49.20
2017-08-23T09:55:12.483Z,50.90
2017-08-23T09:57:40.333Z,51.20
2017-08-23T10:00:08.001Z,51.00
2017-08-23T10:02:35.768Z,51.50
2017-08-23T10:05:03.454Z,51.00
2017-08-23T10:07:31.108Z,50.30
2017-08-23T10:09:59.635Z,50.80
2017-08-23T10:12:27.283Z,50.80
2017-08-23T10:14:55.038Z,49.30
2017-08-23T10:17:22.686Z,49.60
2017-08-23T10:19:50.493Z,51.60
2017-08-23T10:22:18.167Z,50.50
2017-08-23T10:24:45.820Z,48.30
2017-08-23T10:27:13.573Z,47.50
2017-08-23T10:29:41.233Z,46.40
2017-08-23T10:32:08.999Z,46.50
2017-08-23T10:34:36.652Z,46.40
2017-08-23T10:37:04.403Z,45.90
2017-08-23T10:39:32.253Z,44.50
2017-08-23T10:41:59.903Z,43.70
2017-08-23T10:44:27.564Z,45.50
2017-08-23T10:46:55.328Z,46.50
2017-08-23T10:49:23.104Z,44.70
2017-08-23T10:51:50.858Z,45.40
2017-08-23T10:54:18.504Z,44.30
2017-08-23T10:56:46.278Z,46.50
2017-08-23T10:59:13.949Z,44.40
2017-08-23T11:01:41.608Z,43.50
2017-08-23T11:04:09.358Z,44.20
2017-08-23T11:06:37.006Z,44.60
2017-08-23T11:09:04.799Z,44.10
2017-08-23T11:11:32.563Z,43.30
2017-08-23T11:14:00.213Z,44.10
2017-08-23T11:16:27.855Z,45.50
2017-08-23T11:18:55.617Z,44.00
2017-08-23T11:21:23.271Z,45.80
2017-08-23T11:23:50.950Z,44.30
2017-08-23T11:26:18.713Z,42.50
2017-08-23T11:28:46.468Z,42.50
2017-08-23T11:31:14.125Z,43.20
2017-08-23T11:33:41.887Z,41.30
2017-08-23T11:36:09.541Z,42.70
2017-08-23T11:38:37.298Z,42.50
2017-08-23T11:41:05.059Z,43.60
2017-08-23T11:43:32.704Z,41.60
2017-08-23T11:46:00.350Z,41.50
2017-08-23T11:48:28.107Z,41.40
2017-08-23T11:50:55.867Z,41.90
2017-08-23T11:53:23.524Z,43.20
2017-08-23T11:55:51.302Z,42.50
2017-08-23T11:58:18.947Z,41.20
2017-08-23T12:00:47.377Z,42.20
2017-08-23T12:03:15.136Z,42.10
2017-08-23T12:05:42.795Z,42.00
2017-08-23T12:08:10.546Z,40.00
2017-08-23T12:10:38.195Z,40.10
2017-08-23T12:13:05.965Z,40.70
2017-08-23T12:15:33.620Z,44.00
2017-08-23T12:18:01.375Z,41.10
2017-08-23T12:20:29.171Z,42.20
2017-08-23T12:22:56.818Z,43.00
2017-08-23T12:25:24.493Z,40.00
2017-08-23T12:27:52.272Z,40.60
2017-08-23T12:30:20.882Z,40.60
2017-08-23T12:32:48.530Z,41.00
2017-08-23T12:35:16.297Z,42.80
2017-08-23T12:37:43.972Z,40.10
2017-08-23T12:40:11.619Z,40.10
2017-08-23T12:42:39.395Z,41.80
2017-08-23T12:45:07.047Z,40.00
2017-08-23T12:47:34.712Z,40.30
2017-08-23T12:50:02.482Z,39.80
2017-08-23T12:52:31.174Z,40.60
2017-08-23T12:54:58.863Z,39.70
2017-08-23T12:57:26.639Z,39.40
2017-08-23T12:59:54.286Z,39.10
2017-08-23T13:02:21.944Z,40.50
2017-08-23T13:04:49.713Z,38.70
2017-08-23T13:07:17.364Z,37.70
2017-08-23T13:09:45.014Z,37.20
2017-08-23T13:12:12.820Z,36.30
2017-08-23T13:14:40.484Z,38.50
2017-08-23T13:17:08.904Z,39.80
2017-08-23T13:19:36.667Z,39.70
2017-08-23T13:22:04.324Z,39.20
2017-08-23T13:24:32.120Z,37.50
2017-08-23T13:26:59.765Z,36.40
2017-08-23T13:29:28.286Z,36.10
2017-08-23T13:31:56.827Z,37.50
2017-08-23T13:34:24.479Z,37.40
2017-08-23T13:36:52.144Z,36.70
2017-08-23T13:39:19.941Z,37.70
2017-08-23T13:41:47.614Z,37.00
2017-08-23T13:44:15.376Z,37.90
2017-08-23T13:46:43.019Z,37.60
2017-08-23T13:49:10.795Z,37.00
2017-08-23T13:51:38.439Z,38.60
2017-08-23T13:54:06.104Z,39.40
2017-08-23T13:56:33.875Z,36.20
2017-08-23T13:59:01.552Z,38.10
2017-08-23T14:01:29.203Z,39.30
2017-08-23T14:03:56.953Z,38.30
2017-08-23T14:06:24.604Z,36.00
2017-08-23T14:08:52.358Z,37.30
2017-08-23T14:11:20.012Z,37.50
2017-08-23T14:13:47.783Z,37.70
2017-08-23T14:16:15.434Z,36.80
2017-08-23T14:18:43.095Z,37.10
2017-08-23T14:21:10.875Z,36.40
2017-08-23T14:23:39.317Z,37.90
2017-08-23T14:26:07.147Z,37.90
2017-08-23T14:28:34.807Z,36.20
2017-08-23T14:31:02.455Z,36.40
2017-08-23T14:33:30.231Z,38.90
2017-08-23T14:35:57.931Z,39.10
2017-08-23T14:38:25.587Z,36.40
2017-08-23T14:40:53.343Z,36.00
2017-08-23T14:43:20.988Z,36.70
2017-08-23T14:45:48.749Z,35.60
2017-08-23T14:48:16.399Z,34.40
2017-08-23T14:50:44.055Z,34.50
2017-08-23T14:53:11.819Z,35.50
2017-08-23T14:55:39.466Z,36.40
2017-08-23T14:58:07.228Z,36.50
2017-08-23T15:00:34.882Z,37.60
2017-08-23T15:03:02.653Z,37.50
2017-08-23T15:05:30.303Z,36.60
2017-08-23T15:07:57.965Z,35.90
2017-08-23T15:10:25.759Z,36.20
2017-08-23T15:12:53.409Z,37.30
2017-08-23T15:15:21.162Z,38.60
2017-08-23T15:17:48.911Z,37.20
2017-08-23T15:20:16.574Z,37.50
2017-08-23T15:22:44.339Z,36.70
2017-08-23T15:25:12.011Z,37.80
2017-08-23T15:27:39.654Z,38.00
2017-08-23T15:30:07.402Z,36.60
2017-08-23T15:32:35.050Z,36.50
2017-08-23T15:35:02.807Z,36.80
2017-08-23T15:37:30.449Z,37.70
2017-08-23T15:39:58.103Z,37.60
2017-08-23T15:42:25.883Z,36.70
2017-08-23T15:44:53.531Z,36.50
2017-08-23T15:47:21.310Z,34.40
2017-08-23T15:49:48.959Z,35.40
2017-08-23T15:52:17.370Z,37.80
2017-08-23T15:54:45.127Z,37.90
2017-08-23T15:57:12.899Z,38.70
2017-08-23T15:59:40.555Z,39.80
2017-08-23T16:02:08.316Z,41.10
2017-08-23T16:04:36.079Z,40.60
2017-08-23T16:07:03.735Z,40.50
2017-08-23T16:09:31.387Z,40.40
2017-08-23T16:11:59.147Z,41.30
2017-08-23T16:14:26.794Z,41.90
2017-08-23T16:16:54.439Z,41.70
2017-08-23T16:19:22.195Z,42.40
2017-08-23T16:21:49.847Z,41.70
2017-08-23T16:24:17.647Z,42.20
2017-08-23T16:26:45.298Z,42.10
2017-08-23T16:29:13.055Z,43.60
2017-08-23T16:31:40.811Z,43.00
2017-08-23T16:34:08.462Z,43.00
2017-08-23T16:36:36.219Z,43.50
2017-08-23T16:39:04.080Z,43.40
2017-08-23T16:41:31.754Z,43.50
2017-08-23T16:43:59.403Z,42.80
2017-08-23T16:46:27.154Z,43.20
2017-08-23T16:48:54.807Z,43.30
2017-08-23T16:51:22.582Z,44.30
2017-08-23T16:53:50.235Z,44.90
2017-08-23T16:56:18.687Z,46.00
2017-08-23T16:58:46.486Z,46.40
2017-08-23T17:01:14.147Z,45.40
2017-08-23T17:03:41.924Z,46.20
2017-08-23T17:06:09.578Z,46.20
2017-08-23T17:08:37.237Z,46.10
2017-08-23T17:11:05.791Z,46.10
2017-08-23T17:13:33.452Z,46.20
2017-08-23T17:16:01.107Z,45.80
2017-08-23T17:18:28.880Z,45.70
2017-08-23T17:20:56.570Z,46.60
2017-08-23T17:23:24.219Z,47.10
2017-08-23T17:25:52.035Z,46.90
2017-08-23T17:28:19.686Z,47.20
2017-08-23T17:30:47.363Z,47.30
2017-08-23T17:33:15.140Z,47.90
2017-08-23T17:35:42.786Z,48.20
2017-08-23T17:38:10.438Z,49.00
2017-08-23T17:40:38.199Z,49.50
2017-08-23T17:43:05.960Z,49.80
2017-08-23T17:45:33.609Z,50.00
2017-08-23T17:48:01.250Z,50.00
2017-08-23T17:50:29.055Z,50.70
2017-08-23T17:52:56.712Z,51.20
2017-08-23T17:55:24.390Z,51.60
2017-08-23T17:57:52.142Z,51.80
2017-08-23T18:00:19.831Z,51.60
2017-08-23T18:02:47.588Z,51.80
2017-08-23T18:05:15.363Z,52.50
2017-08-23T18:07:43.015Z,52.70
2017-08-23T18:10:10.663Z,53.00
2017-08-23T18:12:38.426Z,54.80
2017-08-23T18:15:06.071Z,56.60
2017-08-23T18:17:33.835Z,57.90
2017-08-23T18:20:01.492Z,59.00
2017-08-23T18:22:29.143Z,59.80
2017-08-23T18:24:56.923Z,60.80
2017-08-23T18:27:25.347Z,61.30
2017-08-23T18:29:53.124Z,61.20
2017-08-23T18:32:20.783Z,61.10
2017-08-23T18:34:48.443Z,61.30
2017-08-23T18:37:16.207Z,61.30
2017-08-23T18:39:43.890Z,61.50
2017-08-23T18:42:11.691Z,62.40
2017-08-23T18:44:39.339Z,61.90
2017-08-23T18:47:07.096Z,62.00
2017-08-23T18:49:34.849Z,61.80
2017-08-23T18:52:02.503Z,61.70
2017-08-23T18:54:30.274Z,62.60
2017-08-23T18:56:58.691Z,63.20
2017-08-23T18:59:26.480Z,63.20
2017-08-23T19:01:55.033Z,64.10
2017-08-23T19:04:22.691Z,64.00
2017-08-23T19:06:50.459Z,64.40
2017-08-23T19:09:18.130Z,64.30
2017-08-23T19:11:45.916Z,64.90
2017-08-23T19:14:13.569Z,65.00
2017-08-23T19:16:41.218Z,64.20
2017-08-23T19:19:08.991Z,65.00
2017-08-23T19:21:36.651Z,65.90
2017-08-23T19:24:04.312Z,66.20
2017-08-23T19:26:32.477Z,66.20
2017-08-23T19:29:00.134Z,66.70
2017-08-23T19:31:27.792Z,68.80
2017-08-23T19:33:55.563Z,68.70
2017-08-23T19:36:23.304Z,68.70
2017-08-23T19:38:51.067Z,68.80
2017-08-23T19:41:18.716Z,68.50
2017-08-23T19:43:46.364Z,68.10
2017-08-23T19:46:14.129Z,68.00
2017-08-23T19:48:41.780Z,68.60
2017-08-23T19:51:09.551Z,69.50
2017-08-23T19:53:37.235Z,69.80
2017-08-23T19:56:04.904Z,70.10
2017-08-23T19:58:32.658Z,71.40
2017-08-23T20:01:00.321Z,71.50
2017-08-23T20:03:28.078Z,71.70
2017-08-23T20:05:55.764Z,70.40
2017-08-23T20:08:24.191Z,69.90
2017-08-23T20:10:51.946Z,69.80
2017-08-23T20:13:19.602Z,71.50
2017-08-23T20:15:47.358Z,72.20
2017-08-23T20:18:15.023Z,72.10
2017-08-23T20:20:42.783Z,72.10
2017-08-23T20:23:10.545Z,72.40
2017-08-23T20:25:38.322Z,72.20
2017-08-23T20:28:05.971Z,71.40
2017-08-23T20:30:33.739Z,72.50
2017-08-23T20:33:01.395Z,73.20
2017-08-23T20:35:29.044Z,73.20
2017-08-23T20:37:56.807Z,73.90
2017-08-23T20:40:24.457Z,74.20
2017-08-23T20:42:52.219Z,73.50
2017-08-23T20:45:19.874Z,74.70
2017-08-23T20:47:47.515Z,74.40
2017-08-23T20:50:15.277Z,74.10
2017-08-23T20:52:43.695Z,73.50
2017-08-23T20:55:11.350Z,73.60
2017-08-23T20:57:39.862Z,73.50
2017-08-23T21:00:07.524Z,73.50
2017-08-23T21:02:35.291Z,73.70
2017-08-23T21:05:02.945Z,73.70
2017-08-23T21:07:30.645Z,74.10
2017-08-23T21:09:58.395Z,75.50
2017-08-23T21:12:26.046Z,75.70
2017-08-23T21:14:53.811Z,76.40
2017-08-23T21:17:21.463Z,76.20
2017-08-23T21:19:49.119Z,75.90
2017-08-23T21:22:16.882Z,74.90
2017-08-23T21:24:44.640Z,75.50
2017-08-23T21:27:12.395Z,74.80
2017-08-23T21:29:40.083Z,74.80
2017-08-23T21:32:07.863Z,75.90
2017-08-23T21:34:35.515Z,76.00
2017-08-23T21:37:03.164Z,76.60
2017-08-23T21:39:31.698Z,76.30
2017-08-23T21:41:59.350Z,76.30
2017-08-23T21:44:26.995Z,76.00
2017-08-23T21:46:54.747Z,76.60
2017-08-23T21:49:22.407Z,77.20
2017-08-23T21:51:50.159Z,77.40
2017-08-23T21:54:17.813Z,76.90
2017-08-23T21:56:45.559Z,76.10
2017-08-23T21:59:13.311Z,76.00
2017-08-23T22:01:41.726Z,76.00
2017-08-23T22:04:09.476Z,76.00
2017-08-23T22:06:37.126Z,75.10
2017-08-23T22:09:05.659Z,75.70
2017-08-23T22:11:33.314Z,75.70
2017-08-23T22:14:00.967Z,76.30
2017-08-23T22:16:28.719Z,76.10
2017-08-23T22:18:56.366Z,77.50
2017-08-23T22:21:24.130Z,77.20
2017-08-23T22:23:51.779Z,77.40
2017-08-23T22:26:19.454Z,77.90
2017-08-23T22:28:47.223Z,77.90
2017-08-23T22:31:14.867Z,77.60
2017-08-23T22:33:42.511Z,77.00
2017-08-23T22:36:10.262Z,77.60
2017-08-23T22:38:38.014Z,77.00
2017-08-23T22:41:06.530Z,78.40
2017-08-23T22:43:34.175Z,78.40
2017-08-23T22:46:01.942Z,78.30
2017-08-23T22:48:29.591Z,77.20
2017-08-23T22:50:57.240Z,77.70
2017-08-23T22:53:24.998Z,79.00
2017-08-23T22:55:52.639Z,78.60
2017-08-23T22:58:20.291Z,78.10
2017-08-23T23:00:48.091Z,77.60
2017-08-23T23:03:15.751Z,76.70
2017-08-23T23:05:43.400Z,76.60
2017-08-23T23:08:11.923Z,76.60
2017-08-23T23:10:39.684Z,76.60
2017-08-23T23:13:07.439Z,76.10
2017-08-23T23:15:35.080Z,76.80
2017-08-23T23:18:02.845Z,77.00
2017-08-23T23:20:30.515Z,77.60
2017-08-23T23:22:58.166Z,77.80
2017-08-23T23:25:25.948Z,77.10
2017-08-23T23:27:53.595Z,76.90
2017-08-23T23:30:21.351Z,76.90
2017-08-23T23:32:48.999Z,76.60
2017-08-23T23:35:16.648Z,77.10
2017-08-23T23:37:44.400Z,77.80
2017-08-23T23:40:12.050Z,78.40
2017-08-23T23:42:39.795Z,78.10
2017-08-23T23:45:07.584Z,77.90
2017-08-23T23:47:36.007Z,78.20
2017-08-23T23:50:03.659Z,77.40
2017-08-23T23:52:31.417Z,77.70
2017-08-23T23:54:59.063Z,78.50
2017-08-23T23:57:26.869Z,78.70
2017-08-23T23:59:54.535Z,78.70
